Time;durP1;ratioP1;P1;durP2;ratioP2;P2;SDS_P1;SDS_P2;PMS_P1;PMS_P2;Temp;Humidity;BMP_temperature;BMP_pressure;BME280_temperature;BME280_humidity;BME280_pressure;Samples;Min_cycle;Max_cycle;Signal;HPM_P1;HPM_P2
2022/06/23 00:00:41;;;;;;;19.93;18.10;;;21.40;99.90;;;;;;6212963;28;20545;-68
2022/06/23 00:03:48;;;;;;;20.10;18.20;;;21.40;99.90;;;;;;6213702;28;20663;-68
2022/06/23 00:06:55;;;;;;;22.53;20.13;;;21.30;99.90;;;;;;6211533;28;20305;-68
2022/06/23 00:10:00;;;;;;;22.97;20.60;;;21.30;99.90;;;;;;6216011;28;20229;-68
2022/06/23 00:13:08;;;;;;;23.70;21.57;;;21.30;99.90;;;;;;6221349;28;20549;-68
2022/06/23 00:16:23;;;;;;;25.90;23.40;;;21.30;99.90;;;;;;6213929;28;20229;-68
2022/06/23 00:19:26;;;;;;;24.80;22.30;;;21.20;99.90;;;;;;6224702;28;20247;-68
2022/06/23 00:22:33;;;;;;;26.50;23.80;;;21.20;99.90;;;;;;6210980;28;20693;-68
2022/06/23 00:25:43;;;;;;;27.37;24.67;;;21.30;99.90;;;;;;6225587;28;20233;-68
2022/06/23 00:28:49;;;;;;;29.70;26.90;;;21.30;99.90;;;;;;6208820;28;20690;-69
2022/06/23 00:31:57;;;;;;;28.00;25.23;;;21.20;99.90;;;;;;6227514;28;20704;-69
2022/06/23 00:35:02;;;;;;;28.47;25.67;;;21.20;99.90;;;;;;6206607;28;20230;-67
2022/06/23 00:38:20;;;;;;;27.07;24.40;;;21.20;99.90;;;;;;6229413;28;20239;-67
2022/06/23 00:41:35;;;;;;;28.53;25.73;;;21.20;99.90;;;;;;6227315;28;20537;-67
2022/06/23 00:44:47;;;;;;;27.50;24.70;;;21.20;99.90;;;;;;6209729;28;20540;-67
2022/06/23 00:47:56;;;;;;;26.77;23.97;;;21.20;99.90;;;;;;6224496;28;20226;-67
2022/06/23 00:51:07;;;;;;;28.97;26.10;;;21.20;99.90;;;;;;6216974;28;20232;-67
2022/06/23 00:54:20;;;;;;;24.53;22.30;;;21.20;99.90;;;;;;6221939;28;20260;-67
2022/06/23 00:57:30;;;;;;;26.10;23.60;;;21.20;99.90;;;;;;6239773;28;20300;-67
2022/06/23 01:00:36;;;;;;;27.23;24.53;;;21.30;99.90;;;;;;6240140;28;20314;-67
2022/06/23 01:03:46;;;;;;;23.90;21.60;;;21.30;99.90;;;;;;6237247;28;20570;-68
2022/06/23 01:06:53;;;;;;;24.60;20.77;;;21.30;99.90;;;;;;6228942;28;20222;-67
2022/06/23 01:10:06;;;;;;;23.60;21.10;;;21.40;99.90;;;;;;6229017;28;20237;-67
2022/06/23 01:13:15;;;;;;;23.37;20.90;;;21.40;99.90;;;;;;6212842;28;20240;-67
2022/06/23 01:16:23;;;;;;;21.83;19.60;;;21.40;99.90;;;;;;6217578;28;20248;-67
2022/06/23 01:20:14;;;;;;;21.50;19.30;;;21.30;99.90;;;;;;6228732;28;20237;-67
2022/06/23 01:23:33;;;;;;;20.33;18.30;;;21.30;99.90;;;;;;6206530;28;20256;-67
2022/06/23 01:26:57;;;;;;;20.67;18.87;;;21.20;99.90;;;;;;6208825;28;20248;-68
2022/06/23 01:30:06;;;;;;;20.70;18.87;;;21.20;99.90;;;;;;6223070;28;20226;-68
2022/06/23 01:33:17;;;;;;;19.40;17.50;;;21.20;99.90;;;;;;6213070;28;20236;-68
2022/06/23 01:36:26;;;;;;;19.27;17.43;;;21.20;99.90;;;;;;6220002;28;20238;-68
2022/06/23 01:39:38;;;;;;;20.10;18.30;;;21.10;99.90;;;;;;6215462;28;20239;-69
2022/06/23 01:42:46;;;;;;;18.30;16.50;;;21.10;99.90;;;;;;6216525;28;20230;-68
2022/06/23 01:45:56;;;;;;;21.20;17.63;;;21.20;99.90;;;;;;6217608;28;20244;-69
2022/06/23 01:49:04;;;;;;;20.00;18.00;;;21.20;99.90;;;;;;6213300;28;20671;-68
2022/06/23 01:52:11;;;;;;;22.23;19.80;;;21.10;99.90;;;;;;6219537;28;20247;-68
2022/06/23 01:55:17;;;;;;;21.30;19.17;;;21.10;99.90;;;;;;6211083;28;20237;-68
2022/06/23 01:58:26;;;;;;;20.77;17.50;;;21.10;99.90;;;;;;6221674;28;20240;-68
2022/06/23 02:01:38;;;;;;;20.33;18.53;;;21.10;99.90;;;;;;6209241;28;20221;-68
2022/06/23 02:04:48;;;;;;;19.60;17.70;;;21.10;99.90;;;;;;6224048;28;20226;-68
2022/06/23 02:07:57;;;;;;;24.13;19.63;;;21.10;99.90;;;;;;6206345;28;20230;-68
2022/06/23 02:11:06;;;;;;;18.83;17.03;;;21.10;99.90;;;;;;6226401;28;20252;-68
2022/06/23 02:14:20;;;;;;;18.90;17.00;;;21.20;99.90;;;;;;6203363;28;20580;-68
2022/06/23 02:17:33;;;;;;;21.07;18.87;;;21.20;99.90;;;;;;6200242;28;20221;-68
2022/06/23 02:20:43;;;;;;;19.67;17.70;;;21.10;99.90;;;;;;6224525;28;20242;-68
2022/06/23 02:23:52;;;;;;;20.13;18.13;;;21.10;99.90;;;;;;6207784;28;20233;-68
2022/06/23 02:27:06;;;;;;;19.63;17.43;;;21.10;99.90;;;;;;6221732;28;20226;-68
2022/06/23 02:30:15;;;;;;;19.10;17.30;;;21.10;99.90;;;;;;6211360;28;20225;-67
2022/06/23 02:33:27;;;;;;;18.87;17.07;;;21.20;99.90;;;;;;6217786;28;20245;-67
2022/06/23 02:37:00;;;;;;;18.50;16.90;;;21.20;99.90;;;;;;6213810;28;20233;-67
2022/06/23 02:40:04;;;;;;;19.77;17.63;;;21.30;99.90;;;;;;6211925;28;20244;-66
2022/06/23 02:43:26;;;;;;;17.30;15.90;;;21.30;99.90;;;;;;6218442;28;20243;-67
2022/06/23 02:46:43;;;;;;;17.57;15.93;;;21.30;99.90;;;;;;6208054;28;20226;-66
2022/06/23 02:50:21;;;;;;;18.97;17.20;;;21.30;99.90;;;;;;6223565;28;20552;-67
2022/06/23 02:53:53;;;;;;;17.43;15.80;;;21.30;99.90;;;;;;6204451;28;20233;-68
2022/06/23 02:57:14;;;;;;;18.30;16.60;;;21.30;99.90;;;;;;6215315;28;20236;-68
2022/06/23 03:00:24;;;;;;;18.43;16.70;;;21.30;99.90;;;;;;6211573;28;20244;-67
2022/06/23 03:03:36;;;;;;;18.10;16.57;;;21.20;99.90;;;;;;6226819;28;20229;-67
2022/06/23 03:06:46;;;;;;;18.33;16.57;;;21.10;99.90;;;;;;6226552;28;20263;-67
2022/06/23 03:09:54;;;;;;;20.00;17.27;;;21.10;99.90;;;;;;6212598;28;20342;-67
2022/06/23 03:13:07;;;;;;;20.40;18.30;;;21.00;99.90;;;;;;6216539;28;20559;-67
2022/06/23 03:16:18;;;;;;;18.20;16.50;;;20.90;99.90;;;;;;6210673;28;20237;-68
2022/06/23 03:19:27;;;;;;;20.43;18.37;;;21.00;99.90;;;;;;6219608;28;20240;-67
2022/06/23 03:22:37;;;;;;;20.67;18.83;;;20.90;99.90;;;;;;6206985;28;20245;-67
2022/06/23 03:25:46;;;;;;;20.43;18.30;;;20.90;99.90;;;;;;6217611;28;20650;-68
2022/06/23 03:28:54;;;;;;;21.30;19.03;;;21.00;99.90;;;;;;6204480;28;20229;-68
2022/06/23 03:32:06;;;;;;;19.73;18.03;;;21.10;99.90;;;;;;6223859;28;20237;-68
2022/06/23 03:35:20;;;;;;;18.40;16.80;;;21.00;99.90;;;;;;6226577;28;20229;-68
2022/06/23 03:42:06;;;;;;;18.73;16.67;;;21.10;99.90;;;;;;6226113;28;20225;-68
2022/06/23 03:45:20;;;;;;;18.77;17.00;;;21.10;99.90;;;;;;6225366;28;20305;-68
2022/06/23 03:48:29;;;;;;;20.37;18.57;;;21.10;99.90;;;;;;6226108;28;20239;-68
2022/06/23 03:51:36;;;;;;;18.67;16.77;;;21.10;99.90;;;;;;6225850;28;20233;-68
2022/06/23 03:54:48;;;;;;;19.37;17.40;;;21.00;99.90;;;;;;6225712;28;20228;-68
2022/06/23 03:57:57;;;;;;;19.53;17.37;;;21.10;99.90;;;;;;6225772;28;20244;-68
2022/06/23 04:01:03;;;;;;;19.60;18.00;;;21.00;99.90;;;;;;6225684;28;20244;-67
2022/06/23 04:04:16;;;;;;;17.57;15.97;;;21.00;99.90;;;;;;6225719;28;20641;-68
2022/06/23 04:07:35;;;;;;;17.40;16.00;;;21.00;99.90;;;;;;6225760;28;20244;-67
2022/06/23 04:10:43;;;;;;;17.40;15.80;;;21.10;99.90;;;;;;6225606;28;20239;-67
2022/06/23 04:13:46;;;;;;;18.50;16.67;;;21.10;99.90;;;;;;6225311;28;20237;-68
2022/06/23 04:16:55;;;;;;;18.30;16.70;;;21.10;99.90;;;;;;6225131;28;20241;-69
2022/06/23 04:20:01;;;;;;;19.80;17.73;;;21.10;99.90;;;;;;6225527;28;20237;-67
2022/06/23 04:23:13;;;;;;;21.73;19.73;;;21.10;99.90;;;;;;6225280;28;20233;-68
2022/06/23 04:26:20;;;;;;;25.20;22.53;;;21.10;99.90;;;;;;6216693;28;20217;-68
2022/06/23 04:29:27;;;;;;;23.40;21.23;;;21.10;99.90;;;;;;6225493;28;20219;-68
2022/06/23 04:32:34;;;;;;;24.77;22.57;;;21.20;99.90;;;;;;6225442;28;20240;-67
2022/06/23 04:35:40;;;;;;;26.20;23.73;;;21.20;99.90;;;;;;6224665;28;20687;-67
2022/06/23 04:38:47;;;;;;;28.53;25.67;;;21.30;99.90;;;;;;6225410;28;20236;-67
2022/06/23 04:41:59;;;;;;;29.60;26.67;;;21.30;99.90;;;;;;6225349;28;20229;-67
2022/06/23 04:45:32;;;;;;;26.73;24.13;;;21.30;99.90;;;;;;6225207;28;20233;-67
2022/06/23 04:48:49;;;;;;;27.40;24.40;;;21.40;99.90;;;;;;6223734;28;20568;-67
2022/06/23 04:51:57;;;;;;;26.17;23.60;;;21.40;99.90;;;;;;6224849;28;20244;-67
2022/06/23 04:55:07;;;;;;;26.17;23.70;;;21.50;99.90;;;;;;6224505;28;20244;-68
2022/06/23 04:58:20;;;;;;;26.57;23.80;;;21.50;99.90;;;;;;6228426;28;20582;-68
2022/06/23 05:01:26;;;;;;;25.83;23.27;;;21.50;99.90;;;;;;6230229;28;20578;-68
2022/06/23 05:04:34;;;;;;;25.57;23.10;;;21.50;99.90;;;;;;6230156;28;20234;-68
2022/06/23 05:07:45;;;;;;;25.37;22.97;;;21.50;99.90;;;;;;6229281;28;20229;-68
2022/06/23 05:10:52;;;;;;;25.33;22.93;;;21.60;99.90;;;;;;6232591;28;20243;-67
2022/06/23 05:14:02;;;;;;;25.67;23.10;;;21.60;99.90;;;;;;6237175;28;20233;-67
2022/06/23 05:17:13;;;;;;;25.27;22.77;;;21.60;99.90;;;;;;6229489;28;20229;-67
2022/06/23 05:20:30;;;;;;;24.17;21.70;;;21.70;99.90;;;;;;6231806;28;20224;-67
2022/06/23 05:23:40;;;;;;;22.80;20.50;;;21.80;99.90;;;;;;6228700;28;20240;-68
2022/06/23 05:26:50;;;;;;;23.13;20.83;;;21.90;99.90;;;;;;6229248;28;20239;-68
2022/06/23 05:30:00;;;;;;;22.93;20.63;;;22.00;99.90;;;;;;6228892;28;20231;-67
2022/06/23 05:33:08;;;;;;;20.80;18.90;;;22.10;99.90;;;;;;6228384;28;20229;-68
2022/06/23 05:36:17;;;;;;;20.63;18.67;;;22.20;99.90;;;;;;6233401;28;20232;-68
2022/06/23 05:39:26;;;;;;;20.67;18.67;;;22.20;99.90;;;;;;6241748;28;20682;-68
2022/06/23 05:42:32;;;;;;;18.87;17.13;;;22.20;99.90;;;;;;6240147;28;20336;-68
2022/06/23 05:45:42;;;;;;;19.43;17.63;;;22.30;99.90;;;;;;6235214;28;20231;-68
2022/06/23 05:48:47;;;;;;;18.87;17.10;;;22.30;99.90;;;;;;6228332;28;20241;-69
2022/06/23 05:51:56;;;;;;;19.20;17.43;;;22.40;99.90;;;;;;6228762;28;20248;-69
2022/06/23 05:55:05;;;;;;;18.60;17.00;;;22.40;99.90;;;;;;6228366;28;20236;-69
2022/06/23 05:58:18;;;;;;;19.43;17.57;;;22.50;99.90;;;;;;6228623;28;20229;-69
2022/06/23 06:01:28;;;;;;;18.67;17.07;;;22.50;99.90;;;;;;6228027;28;20232;-68
2022/06/23 06:04:36;;;;;;;20.77;18.77;;;22.60;99.90;;;;;;6228640;28;20317;-68
2022/06/23 06:07:41;;;;;;;19.53;16.70;;;22.60;99.90;;;;;;6228448;28;20229;-68
2022/06/23 06:10:47;;;;;;;19.17;17.07;;;22.70;99.90;;;;;;6229125;28;20249;-68
2022/06/23 06:13:51;;;;;;;16.77;15.30;;;22.80;99.90;;;;;;6228313;28;20253;-67
2022/06/23 06:16:57;;;;;;;17.93;16.40;;;22.80;99.90;;;;;;6227844;28;20233;-67
2022/06/23 06:20:05;;;;;;;17.97;16.07;;;22.70;99.90;;;;;;6227778;28;20303;-68
2022/06/23 06:23:14;;;;;;;19.77;17.67;;;22.60;99.90;;;;;;6227851;28;20368;-69
2022/06/23 06:26:21;;;;;;;18.00;16.30;;;22.60;99.90;;;;;;6228944;28;20205;-69
2022/06/23 06:29:27;;;;;;;18.33;16.63;;;22.60;99.90;;;;;;6228457;28;20197;-69
2022/06/23 06:32:37;;;;;;;19.10;16.97;;;22.60;99.90;;;;;;6227369;28;20237;-69
2022/06/23 06:35:44;;;;;;;20.50;18.57;;;22.50;99.90;;;;;;6227686;28;20320;-68
2022/06/23 06:38:47;;;;;;;21.13;19.13;;;22.40;99.90;;;;;;6227292;28;20221;-70
2022/06/23 06:41:54;;;;;;;20.40;18.27;;;22.40;99.90;;;;;;6227492;28;20233;-67
2022/06/23 06:45:03;;;;;;;19.03;17.03;;;22.60;99.90;;;;;;6227216;28;20232;-69
2022/06/23 06:48:15;;;;;;;18.67;17.07;;;22.80;99.90;;;;;;6227108;28;20550;-67
2022/06/23 06:51:22;;;;;;;15.57;14.17;;;23.00;99.90;;;;;;6226871;28;20233;-67
2022/06/23 06:54:30;;;;;;;17.17;15.57;;;23.00;99.90;;;;;;6243346;28;20236;-65
2022/06/23 06:57:37;;;;;;;17.53;15.90;;;22.90;99.90;;;;;;6249125;28;20228;-64
2022/06/23 07:00:46;;;;;;;16.67;14.70;;;22.80;99.90;;;;;;6250529;28;20239;-65
2022/06/23 07:03:56;;;;;;;18.00;13.53;;;22.70;99.90;;;;;;6250484;28;20375;-65
2022/06/23 07:07:04;;;;;;;15.50;14.03;;;22.60;99.90;;;;;;6250663;28;20238;-65
2022/06/23 07:10:17;;;;;;;16.90;15.50;;;22.30;99.90;;;;;;6250429;28;20225;-65
2022/06/23 07:13:29;;;;;;;14.20;12.90;;;22.20;99.90;;;;;;6227754;28;20770;-65
2022/06/23 07:16:38;;;;;;;12.93;11.83;;;22.20;99.90;;;;;;6229055;28;20244;-64
2022/06/23 07:19:47;;;;;;;13.00;11.80;;;22.20;99.90;;;;;;6228658;28;20304;-65
2022/06/23 07:22:59;;;;;;;14.70;13.30;;;22.40;99.90;;;;;;6225667;28;20719;-67
2022/06/23 07:26:18;;;;;;;13.23;11.23;;;22.60;99.90;;;;;;6225006;28;20229;-65
2022/06/23 07:29:31;;;;;;;12.10;11.00;;;22.80;99.90;;;;;;6224019;28;20214;-65
2022/06/23 07:32:40;;;;;;;11.90;10.70;;;23.00;99.90;;;;;;6234246;28;20225;-66
2022/06/23 07:35:57;;;;;;;12.87;11.70;;;23.20;99.90;;;;;;6245049;28;20377;-66
2022/06/23 07:39:05;;;;;;;12.47;11.20;;;23.30;99.90;;;;;;6248794;28;20225;-66
2022/06/23 07:42:15;;;;;;;13.43;12.23;;;23.40;99.90;;;;;;6249285;28;20232;-65
2022/06/23 07:45:23;;;;;;;12.60;11.40;;;23.40;99.90;;;;;;6250319;28;20236;-65
2022/06/23 07:48:29;;;;;;;11.90;10.90;;;23.50;99.90;;;;;;6250697;28;20232;-67
2022/06/23 07:51:35;;;;;;;12.67;11.37;;;23.70;99.90;;;;;;6250221;28;20238;-68
2022/06/23 07:54:38;;;;;;;13.30;12.20;;;23.70;99.90;;;;;;6250019;28;20236;-68
2022/06/23 07:57:41;;;;;;;13.20;12.10;;;23.70;99.90;;;;;;6250422;28;20233;-66
2022/06/23 08:00:46;;;;;;;13.03;11.73;;;23.80;99.90;;;;;;6250477;28;20231;-67
2022/06/23 08:03:56;;;;;;;12.90;11.60;;;23.90;99.90;;;;;;6249966;28;20331;-66
2022/06/23 08:07:03;;;;;;;13.77;12.40;;;24.00;99.90;;;;;;6249689;28;20216;-67
2022/06/23 08:10:10;;;;;;;14.57;11.70;;;24.00;99.90;;;;;;6249734;28;20553;-68
2022/06/23 08:13:18;;;;;;;12.77;11.67;;;24.10;99.90;;;;;;6249642;28;20240;-67
2022/06/23 08:19:49;;;;;;;12.57;11.43;;;24.30;99.90;;;;;;6249651;28;20688;-64
2022/06/23 08:22:55;;;;;;;12.13;10.83;;;24.70;99.90;;;;;;6248749;28;20228;-65
2022/06/23 08:25:59;;;;;;;11.57;10.37;;;25.00;99.90;;;;;;6244523;28;20557;-65
2022/06/23 08:29:07;;;;;;;12.87;11.83;;;25.30;99.90;;;;;;6230199;28;20673;-64
2022/06/23 08:32:11;;;;;;;13.20;11.40;;;25.50;99.90;;;;;;6229897;28;20668;-66
2022/06/23 08:35:22;;;;;;;13.57;11.20;;;26.00;99.90;;;;;;6254137;28;20220;-66
2022/06/23 08:38:32;;;;;;;12.60;11.40;;;26.10;99.90;;;;;;6243189;28;20232;-66
2022/06/23 08:41:42;;;;;;;10.83;9.73;;;26.10;99.90;;;;;;6229562;28;20239;-66
2022/06/23 08:45:15;;;;;;;11.40;10.40;;;25.90;99.90;;;;;;6229934;28;20236;-66
2022/06/23 08:48:24;;;;;;;11.83;10.83;;;25.90;99.90;;;;;;6229275;28;20768;-66
2022/06/23 08:51:41;;;;;;;11.70;10.63;;;25.80;99.90;;;;;;6229701;28;20224;-65
2022/06/23 08:54:54;;;;;;;10.47;9.53;;;25.80;99.90;;;;;;6229275;28;20229;-66
2022/06/23 08:58:04;;;;;;;15.00;10.20;;;25.80;99.90;;;;;;6229246;28;20237;-66
2022/06/23 09:01:13;;;;;;;12.30;11.10;;;25.80;99.90;;;;;;6229209;28;20225;-66
2022/06/23 09:04:26;;;;;;;12.40;11.20;;;25.90;99.90;;;;;;6229501;28;20652;-66
2022/06/23 09:07:45;;;;;;;11.43;10.43;;;26.10;99.90;;;;;;6228850;28;20304;-65
2022/06/23 09:10:59;;;;;;;11.03;10.10;;;26.30;99.90;;;;;;6228793;28;20252;-65
2022/06/23 09:14:41;;;;;;;10.77;9.77;;;26.50;99.90;;;;;;6233632;28;20236;-66
2022/06/23 09:18:02;;;;;;;11.27;10.10;;;26.50;99.90;;;;;;6230638;28;20335;-66
2022/06/23 09:21:28;;;;;;;10.90;10.00;;;26.70;99.90;;;;;;6229570;28;20241;-66
2022/06/23 09:24:57;;;;;;;10.93;9.83;;;27.10;99.90;;;;;;6223249;28;20335;-66
2022/06/23 09:28:15;;;;;;;12.73;10.10;;;27.50;99.90;;;;;;6207207;28;20221;-66
2022/06/23 09:31:22;;;;;;;11.43;10.37;;;27.70;99.90;;;;;;6221253;28;20557;-66
2022/06/23 09:34:40;;;;;;;12.03;10.80;;;27.60;99.90;;;;;;6209661;28;20251;-65
2022/06/23 09:38:08;;;;;;;10.53;9.63;;;27.80;99.90;;;;;;6224013;28;20245;-67
2022/06/23 09:41:25;;;;;;;10.80;9.90;;;28.40;99.90;;;;;;6227903;28;20232;-66
2022/06/23 09:44:47;;;;;;;9.93;8.93;;;28.50;99.90;;;;;;6202303;28;20380;-66
2022/06/23 09:48:28;;;;;;;10.80;10.00;;;28.70;99.60;;;;;;6215205;28;20298;-66
2022/06/23 09:51:50;;;;;;;11.00;9.93;;;28.80;99.20;;;;;;6226101;28;20229;-66
2022/06/23 09:55:22;;;;;;;10.67;9.77;;;28.60;98.70;;;;;;6229865;28;20233;-66
2022/06/23 09:58:50;;;;;;;11.30;10.27;;;28.40;99.10;;;;;;6223294;28;20235;-66
2022/06/23 10:02:02;;;;;;;11.93;10.73;;;28.40;99.80;;;;;;6243386;28;20227;-66
2022/06/23 10:05:22;;;;;;;11.63;10.00;;;28.50;99.20;;;;;;6251761;28;20369;-67
2022/06/23 10:08:40;;;;;;;9.40;8.60;;;28.40;98.90;;;;;;6224784;28;20216;-65
2022/06/23 10:12:06;;;;;;;11.87;10.60;;;28.50;98.60;;;;;;6201860;28;20240;-66
2022/06/23 10:15:28;;;;;;;14.03;12.77;;;28.70;97.80;;;;;;6200855;28;20684;-66
2022/06/23 10:19:09;;;;;;;10.87;10.07;;;28.60;97.70;;;;;;6204001;28;20243;-67
2022/06/23 10:22:32;;;;;;;10.93;9.90;;;28.30;97.90;;;;;;6211112;28;20241;-66
2022/06/23 10:25:54;;;;;;;9.63;8.77;;;28.50;97.70;;;;;;6233443;28;20216;-66
2022/06/23 10:29:25;;;;;;;11.77;10.67;;;28.80;97.20;;;;;;6216088;28;20224;-66
2022/06/23 10:33:05;;;;;;;9.23;8.60;;;29.10;96.40;;;;;;6207887;28;20237;-65
2022/06/23 10:36:28;;;;;;;10.70;9.70;;;29.40;95.60;;;;;;6224436;28;20240;-65
2022/06/23 10:39:49;;;;;;;9.60;8.80;;;29.30;96.00;;;;;;6238362;28;20242;-66
2022/06/23 10:43:23;;;;;;;9.80;8.80;;;29.20;95.90;;;;;;6251393;28;20231;-67
2022/06/23 10:46:33;;;;;;;9.53;8.77;;;29.10;95.30;;;;;;6247229;28;20232;-66
2022/06/23 10:50:02;;;;;;;8.93;8.30;;;29.40;95.10;;;;;;6250720;28;20307;-66
2022/06/23 10:53:48;;;;;;;9.80;8.80;;;29.40;94.70;;;;;;6226612;28;20229;-66
2022/06/23 10:57:05;;;;;;;10.80;9.80;;;29.20;96.10;;;;;;6227071;28;20229;-65
2022/06/23 11:00:16;;;;;;;10.93;9.93;;;29.10;96.30;;;;;;6226910;28;20615;-65
2022/06/23 11:03:39;;;;;;;9.47;8.57;;;29.00;96.70;;;;;;6226529;28;20232;-65
2022/06/23 11:07:07;;;;;;;10.67;9.87;;;28.90;97.00;;;;;;6226026;28;20645;-65
2022/06/23 11:10:45;;;;;;;10.40;9.60;;;28.70;97.10;;;;;;6226614;28;20243;-65
2022/06/23 11:13:56;;;;;;;10.50;9.60;;;28.50;97.60;;;;;;6229501;28;20247;-65
2022/06/23 11:17:10;;;;;;;10.80;9.90;;;28.80;97.00;;;;;;6226438;28;20239;-67
2022/06/23 11:20:27;;;;;;;10.50;9.60;;;28.80;97.00;;;;;;6226136;28;20304;-66
2022/06/23 11:23:40;;;;;;;10.70;9.60;;;28.70;97.20;;;;;;6223862;28;20220;-65
2022/06/23 11:26:55;;;;;;;11.00;10.20;;;28.80;97.40;;;;;;6201201;28;20531;-65
2022/06/23 11:30:08;;;;;;;9.63;8.93;;;28.20;97.30;;;;;;6207310;28;20221;-65
2022/06/23 11:33:28;;;;;;;10.37;9.47;;;28.10;97.80;;;;;;6230947;28;20231;-66
2022/06/23 11:37:04;;;;;;;11.60;10.50;;;27.70;98.50;;;;;;6252773;28;20227;-65
2022/06/23 11:40:26;;;;;;;10.70;9.70;;;28.00;98.10;;;;;;6228199;28;20231;-65
2022/06/23 11:43:45;;;;;;;9.67;8.80;;;28.00;97.60;;;;;;6251721;28;20246;-65
2022/06/23 11:46:58;;;;;;;11.00;9.90;;;28.10;97.60;;;;;;6229112;28;20246;-66
2022/06/23 11:50:11;;;;;;;9.47;8.57;;;27.90;97.80;;;;;;6247898;28;20224;-66
2022/06/23 11:53:30;;;;;;;10.00;9.10;;;27.60;98.10;;;;;;6225192;28;20232;-66
2022/06/23 11:56:48;;;;;;;10.93;9.97;;;27.30;98.80;;;;;;6227817;28;20227;-66
2022/06/23 12:00:05;;;;;;;10.33;9.20;;;27.00;99.30;;;;;;6244239;28;20233;-66
2022/06/23 12:03:47;;;;;;;10.37;9.57;;;26.70;99.50;;;;;;6224521;28;20687;-65
2022/06/23 12:07:04;;;;;;;9.03;8.27;;;26.50;99.90;;;;;;6220841;28;20235;-66
2022/06/23 12:10:15;;;;;;;11.00;8.17;;;26.50;99.80;;;;;;6225364;28;20240;-65
2022/06/23 12:13:18;;;;;;;8.87;8.10;;;26.60;99.80;;;;;;6225201;28;20232;-66
2022/06/23 12:16:23;;;;;;;9.17;8.37;;;26.80;99.80;;;;;;6223312;28;20237;-65
2022/06/23 12:19:38;;;;;;;9.57;8.67;;;26.90;99.60;;;;;;6200316;28;20237;-66
2022/06/23 12:22:45;;;;;;;9.27;8.40;;;27.10;99.20;;;;;;6220463;28;20239;-66
2022/06/23 12:26:04;;;;;;;9.17;8.57;;;27.40;98.60;;;;;;6204418;28;20243;-65
2022/06/23 12:29:14;;;;;;;9.60;8.03;;;27.50;97.90;;;;;;6217803;28;20217;-65
2022/06/23 12:32:37;;;;;;;8.53;7.70;;;27.80;98.00;;;;;;6249350;28;20236;-67
2022/06/23 12:35:47;;;;;;;8.77;8.10;;;28.20;97.70;;;;;;6249397;28;20227;-66
2022/06/23 12:38:54;;;;;;;11.20;8.87;;;28.40;97.20;;;;;;6249350;28;20238;-66
2022/06/23 12:42:05;;;;;;;11.03;8.93;;;28.40;97.30;;;;;;6233504;28;20314;-65
2022/06/23 12:45:36;;;;;;;8.73;7.93;;;28.30;96.70;;;;;;6207478;28;20560;-65
2022/06/23 12:49:10;;;;;;;10.33;8.00;;;27.70;96.30;;;;;;6213424;28;20225;-65
2022/06/23 12:52:28;;;;;;;9.80;8.93;;;27.80;96.60;;;;;;6192619;28;20278;-66
2022/06/23 12:55:47;;;;;;;9.67;8.80;;;27.70;97.00;;;;;;6224774;28;20239;-66
2022/06/23 12:58:54;;;;;;;10.97;9.83;;;27.70;97.40;;;;;;6207710;28;20231;-67
2022/06/23 13:02:06;;;;;;;8.77;8.10;;;27.60;97.60;;;;;;6224472;28;20703;-66
2022/06/23 13:05:19;;;;;;;10.03;9.17;;;27.60;97.40;;;;;;6224145;28;20267;-67
2022/06/23 13:08:28;;;;;;;9.27;8.47;;;27.60;97.20;;;;;;6200469;28;20232;-68
2022/06/23 13:11:40;;;;;;;9.43;8.53;;;27.60;97.70;;;;;;6200100;28;20285;-66
2022/06/23 13:14:49;;;;;;;9.90;9.00;;;27.50;97.50;;;;;;6200445;28;20581;-67
2022/06/23 13:17:59;;;;;;;9.73;8.93;;;27.50;97.60;;;;;;6203143;28;20226;-66
2022/06/23 13:21:11;;;;;;;8.73;7.90;;;27.40;97.50;;;;;;6205180;28;20240;-66
2022/06/23 13:24:19;;;;;;;8.37;7.77;;;27.50;97.50;;;;;;6204614;28;20249;-66
2022/06/23 13:27:25;;;;;;;9.17;8.30;;;27.40;97.40;;;;;;6204963;28;20233;-66
2022/06/23 13:30:34;;;;;;;8.67;7.87;;;27.40;97.30;;;;;;6204405;28;20247;-66
2022/06/23 13:33:44;;;;;;;8.33;7.73;;;27.50;97.00;;;;;;6210774;28;20229;-67
2022/06/23 13:36:54;;;;;;;8.10;7.30;;;27.80;96.60;;;;;;6240997;28;20250;-66
2022/06/23 13:40:03;;;;;;;8.33;7.60;;;27.70;96.60;;;;;;6239188;28;20243;-65
2022/06/23 13:43:10;;;;;;;8.90;8.00;;;27.60;97.20;;;;;;6228016;28;20240;-67
2022/06/23 13:46:18;;;;;;;8.10;7.50;;;27.70;97.10;;;;;;6228521;28;20718;-66
2022/06/23 13:49:25;;;;;;;8.50;7.90;;;27.70;96.70;;;;;;6227923;28;20228;-67
2022/06/23 13:52:36;;;;;;;8.97;8.20;;;27.60;96.70;;;;;;6228229;28;20256;-66
2022/06/23 13:55:45;;;;;;;7.10;6.50;;;27.50;96.70;;;;;;6223465;28;20233;-65
2022/06/23 13:58:57;;;;;;;9.23;8.00;;;27.10;96.90;;;;;;6227853;28;20707;-65
2022/06/23 14:02:05;;;;;;;7.80;7.10;;;27.20;97.00;;;;;;6221002;28;20221;-66
2022/06/23 14:05:19;;;;;;;8.80;8.20;;;27.20;97.10;;;;;;6206044;28;20221;-66
2022/06/23 14:08:32;;;;;;;8.80;8.10;;;27.30;97.00;;;;;;6251452;28;20224;-66
2022/06/23 14:11:41;;;;;;;8.80;7.70;;;27.30;96.70;;;;;;6251824;28;20210;-67
2022/06/23 14:14:51;;;;;;;8.03;7.17;;;27.00;97.10;;;;;;6248369;28;20224;-66
2022/06/23 14:17:59;;;;;;;7.63;7.03;;;27.10;97.30;;;;;;6232221;28;20306;-66
2022/06/23 14:21:14;;;;;;;8.47;7.77;;;26.90;96.90;;;;;;6251754;28;20228;-66
2022/06/23 14:24:23;;;;;;;8.40;7.60;;;26.60;97.50;;;;;;6244488;28;20224;-65
2022/06/23 14:27:36;;;;;;;8.27;7.57;;;26.80;97.70;;;;;;6230119;28;20695;-66
2022/06/23 14:30:47;;;;;;;8.87;8.17;;;26.90;97.20;;;;;;6218150;28;20231;-66
2022/06/23 14:33:55;;;;;;;8.90;8.23;;;26.90;97.20;;;;;;6233296;28;20657;-66
2022/06/23 14:37:05;;;;;;;9.03;8.17;;;26.70;96.80;;;;;;6235502;28;20220;-66
2022/06/23 14:40:14;;;;;;;7.90;7.10;;;26.60;97.10;;;;;;6227165;28;20239;-66
2022/06/23 14:43:42;;;;;;;10.00;9.20;;;26.50;97.10;;;;;;6247439;28;20240;-65
2022/06/23 14:46:54;;;;;;;10.37;9.33;;;26.60;99.80;;;;;;6252146;28;20233;-66
2022/06/23 14:50:23;;;;;;;12.83;8.97;;;26.50;99.90;;;;;;6226569;28;20278;-65
2022/06/23 14:53:33;;;;;;;9.77;8.87;;;26.40;99.90;;;;;;6223951;28;20235;-65
2022/06/23 14:56:47;;;;;;;9.80;9.00;;;26.30;99.90;;;;;;6227070;28;20232;-66
2022/06/23 14:59:57;;;;;;;9.33;8.63;;;26.30;99.90;;;;;;6205511;28;20230;-65
2022/06/23 15:03:08;;;;;;;10.27;9.37;;;26.30;99.90;;;;;;6202188;28;20626;-65
2022/06/23 15:06:22;;;;;;;10.53;9.63;;;26.40;99.90;;;;;;6209834;28;20255;-66
2022/06/23 15:09:33;;;;;;;10.60;9.60;;;26.30;99.90;;;;;;6227011;28;20236;-66
2022/06/23 15:12:43;;;;;;;9.90;9.10;;;26.30;99.90;;;;;;6226776;28;20271;-66
2022/06/23 15:15:52;;;;;;;10.10;9.20;;;26.20;99.90;;;;;;6226726;28;20232;-65
2022/06/23 15:19:03;;;;;;;10.27;9.30;;;26.30;99.90;;;;;;6226654;28;20278;-66
2022/06/23 15:25:54;;;;;;;9.63;8.93;;;26.30;99.90;;;;;;6225884;28;20263;-67
2022/06/23 15:29:06;;;;;;;10.20;9.30;;;26.40;99.90;;;;;;6225977;28;20224;-67
2022/06/23 15:32:22;;;;;;;10.67;9.67;;;26.50;99.90;;;;;;6225907;28;20236;-67
2022/06/23 15:35:34;;;;;;;12.20;9.97;;;26.70;99.90;;;;;;6250186;28;20269;-66
2022/06/23 15:38:47;;;;;;;9.73;8.80;;;26.70;99.90;;;;;;6250607;28;20236;-68
2022/06/23 15:41:58;;;;;;;10.30;9.30;;;26.60;99.90;;;;;;6244227;28;20660;-66
2022/06/23 15:45:14;;;;;;;9.30;8.50;;;26.50;99.90;;;;;;6250654;28;20228;-66
2022/06/23 15:48:22;;;;;;;9.93;9.20;;;26.50;99.90;;;;;;6250642;28;20224;-65
2022/06/23 15:51:32;;;;;;;10.23;9.43;;;26.60;99.90;;;;;;6250041;28;20577;-66
2022/06/23 15:54:42;;;;;;;9.33;8.63;;;26.50;99.90;;;;;;6250205;28;20590;-66
2022/06/23 15:57:51;;;;;;;11.17;10.37;;;26.40;99.90;;;;;;6244065;28;20681;-65
2022/06/23 16:01:01;;;;;;;9.57;8.67;;;26.30;99.90;;;;;;6228933;28;20233;-67
2022/06/23 16:04:14;;;;;;;10.20;9.23;;;26.10;99.90;;;;;;6225521;28;20237;-66
2022/06/23 16:07:23;;;;;;;11.40;10.33;;;26.10;99.90;;;;;;6242866;28;20227;-67
2022/06/23 16:10:30;;;;;;;10.90;9.87;;;26.00;99.90;;;;;;6250292;28;20232;-67
2022/06/23 16:13:40;;;;;;;9.80;9.00;;;25.90;99.90;;;;;;6249536;28;20245;-65
2022/06/23 16:16:48;;;;;;;9.37;8.57;;;25.80;99.90;;;;;;6249974;28;20234;-65
2022/06/23 16:19:55;;;;;;;8.90;8.10;;;25.70;99.90;;;;;;6249345;28;20314;-66
2022/06/23 16:23:04;;;;;;;10.83;9.27;;;25.70;99.90;;;;;;6249519;28;20699;-66
2022/06/23 16:26:13;;;;;;;9.63;8.83;;;25.60;99.90;;;;;;6249365;28;20509;-66
2022/06/23 16:29:21;;;;;;;9.17;8.47;;;25.50;99.90;;;;;;6249280;28;20315;-66
2022/06/23 16:32:31;;;;;;;10.50;9.50;;;25.50;99.90;;;;;;6249270;28;20240;-66
2022/06/23 16:35:42;;;;;;;9.47;8.70;;;25.50;99.90;;;;;;6249288;28;20526;-66